createdAt,value
2023-02-14T00:01:45.469Z,0.90
2023-02-14T00:04:14.748Z,1.20
2023-02-14T00:06:43.522Z,1.30
2023-02-14T00:09:18.024Z,1.00
2023-02-14T00:11:46.703Z,1.47
2023-02-14T00:14:34.535Z,1.50
2023-02-14T00:17:03.270Z,1.30
2023-02-14T00:19:32.619Z,1.50
2023-02-14T00:22:01.164Z,1.20
2023-02-14T00:24:29.586Z,1.60
2023-02-14T00:26:58.104Z,1.40
2023-02-14T00:29:30.551Z,1.50
2023-02-14T00:31:59.056Z,2.20
2023-02-14T00:34:28.402Z,2.00
2023-02-14T00:36:56.980Z,2.27
2023-02-14T00:39:25.313Z,1.90
2023-02-14T00:41:53.652Z,1.87
2023-02-14T00:44:22.194Z,2.07
2023-02-14T00:46:50.587Z,3.07
2023-02-14T00:49:19.088Z,1.93
2023-02-14T00:51:47.533Z,1.97
2023-02-14T00:54:15.912Z,2.33
2023-02-14T00:56:44.294Z,2.40
2023-02-14T00:59:13.681Z,2.50
2023-02-14T01:01:42.049Z,2.83
2023-02-14T01:04:10.576Z,2.50
2023-02-14T01:06:38.994Z,2.97
2023-02-14T01:09:07.404Z,2.47
2023-02-14T01:11:36.119Z,3.10
2023-02-14T01:14:04.578Z,2.80
2023-02-14T01:16:33.021Z,3.03
2023-02-14T01:19:02.333Z,9.30
2023-02-14T01:21:33.585Z,15.27
2023-02-14T01:24:05.140Z,14.87
2023-02-14T01:26:33.712Z,9.40
2023-02-14T01:29:02.381Z,27.60
2023-02-14T01:31:33.898Z,5.90
2023-02-14T01:34:03.275Z,5.33
2023-02-14T01:36:38.224Z,7.20
2023-02-14T01:39:16.833Z,4.30
2023-02-14T01:41:50.390Z,6.80
2023-02-14T01:44:18.679Z,4.03
2023-02-14T01:46:47.528Z,6.70
2023-02-14T01:49:30.902Z,6.27
2023-02-14T01:52:07.410Z,4.63
2023-02-14T01:54:39.741Z,6.70
2023-02-14T01:57:10.834Z,4.18
2023-02-14T01:59:47.333Z,4.40
2023-02-14T02:02:15.779Z,3.20
2023-02-14T02:04:47.315Z,2.53
2023-02-14T02:07:21.706Z,3.90
2023-02-14T02:10:03.794Z,3.70
2023-02-14T02:12:32.563Z,4.43
2023-02-14T02:15:01.989Z,5.20
2023-02-14T02:18:10.373Z,3.40
2023-02-14T02:21:16.419Z,4.85
2023-02-14T02:24:35.514Z,4.28
2023-02-14T02:27:34.093Z,3.95
2023-02-14T02:30:08.621Z,4.60
2023-02-14T02:33:07.782Z,4.70
2023-02-14T02:35:59.360Z,4.80
2023-02-14T02:38:33.746Z,4.88
2023-02-14T02:41:10.951Z,4.55
2023-02-14T02:44:19.107Z,5.30
2023-02-14T02:47:03.561Z,6.18
2023-02-14T02:50:13.486Z,7.20
2023-02-14T02:53:03.887Z,6.57
2023-02-14T02:55:54.865Z,7.75
2023-02-14T02:58:27.017Z,7.55
2023-02-14T03:00:56.438Z,7.03
2023-02-14T03:03:45.771Z,11.65
2023-02-14T03:06:14.116Z,11.35
2023-02-14T03:08:42.516Z,35.67
2023-02-14T03:11:13.245Z,32.97
2023-02-14T03:14:12.751Z,56.10
2023-02-14T03:17:03.169Z,17.33
2023-02-14T03:20:05.838Z,15.65
2023-02-14T03:22:43.117Z,9.13
2023-02-14T03:25:33.335Z,10.40
2023-02-14T03:28:34.555Z,6.55
2023-02-14T03:31:13.149Z,4.25
2023-02-14T03:34:06.567Z,4.15
2023-02-14T03:36:54.105Z,10.77
2023-02-14T03:39:53.937Z,8.55
2023-02-14T03:42:48.345Z,4.60
2023-02-14T03:45:41.487Z,5.40
2023-02-14T03:48:13.333Z,5.65
2023-02-14T03:50:45.259Z,5.50
2023-02-14T03:53:18.116Z,6.80
2023-02-14T03:56:05.238Z,8.13
2023-02-14T03:58:38.599Z,5.47
2023-02-14T04:01:21.958Z,6.57
2023-02-14T04:03:51.553Z,6.22
2023-02-14T04:06:21.299Z,6.20
2023-02-14T04:08:49.656Z,5.13
2023-02-14T04:11:18.600Z,4.40
2023-02-14T04:13:47.031Z,4.45
2023-02-14T04:16:15.456Z,4.18
2023-02-14T04:19:02.316Z,5.13
2023-02-14T04:21:30.689Z,3.33
2023-02-14T04:23:59.032Z,3.38
2023-02-14T04:26:27.468Z,3.03
2023-02-14T04:28:55.830Z,3.00
2023-02-14T04:31:24.361Z,3.53
2023-02-14T04:33:52.837Z,6.88
2023-02-14T04:36:21.238Z,4.78
2023-02-14T04:38:49.625Z,5.10
2023-02-14T04:41:18.017Z,3.97
2023-02-14T04:43:46.364Z,4.13
2023-02-14T04:46:14.778Z,2.83
2023-02-14T04:48:43.305Z,2.70
2023-02-14T04:51:11.686Z,4.03
2023-02-14T04:53:41.106Z,2.75
2023-02-14T04:56:09.955Z,3.72
2023-02-14T04:58:38.332Z,3.40
2023-02-14T05:01:06.694Z,2.78
2023-02-14T05:03:35.165Z,3.58
2023-02-14T05:06:03.562Z,2.80
2023-02-14T05:08:31.901Z,2.83
2023-02-14T05:11:00.677Z,3.92
2023-02-14T05:13:29.401Z,3.70
2023-02-14T05:15:57.790Z,4.00
2023-02-14T05:18:26.401Z,3.45
2023-02-14T05:20:55.965Z,3.05
2023-02-14T05:23:24.777Z,5.18
2023-02-14T05:25:53.869Z,3.65
2023-02-14T05:28:22.347Z,3.00
2023-02-14T05:30:53.002Z,3.45
2023-02-14T05:33:21.437Z,3.67
2023-02-14T05:35:49.838Z,3.40
2023-02-14T05:38:18.486Z,6.13
2023-02-14T05:40:47.343Z,4.00
2023-02-14T05:43:15.825Z,5.15
2023-02-14T05:45:44.208Z,4.22
2023-02-14T05:48:12.902Z,4.63
2023-02-14T05:50:42.652Z,5.63
2023-02-14T05:53:12.233Z,7.15
2023-02-14T05:55:40.670Z,7.65
2023-02-14T05:58:09.525Z,5.72
2023-02-14T06:00:40.711Z,7.90
2023-02-14T06:03:09.617Z,10.65
2023-02-14T06:05:38.113Z,7.68
2023-02-14T06:08:06.527Z,10.27
2023-02-14T06:10:34.977Z,7.75
2023-02-14T06:13:03.405Z,5.78
2023-02-14T06:15:31.749Z,7.70
2023-02-14T06:18:00.122Z,8.05
2023-02-14T06:20:28.689Z,9.45
2023-02-14T06:22:57.840Z,11.52
2023-02-14T06:25:26.679Z,10.85
2023-02-14T06:27:58.690Z,9.73
2023-02-14T06:30:28.111Z,5.97
2023-02-14T06:32:56.628Z,4.65
2023-02-14T06:35:25.064Z,6.25
2023-02-14T06:37:53.481Z,6.70
2023-02-14T06:40:22.661Z,4.68
2023-02-14T06:42:51.027Z,7.15
2023-02-14T06:45:19.533Z,8.52
2023-02-14T06:47:48.136Z,11.82
2023-02-14T06:50:16.605Z,11.70
2023-02-14T06:52:45.295Z,20.10
2023-02-14T06:55:14.646Z,16.05
2023-02-14T06:57:43.026Z,12.57
2023-02-14T07:00:15.521Z,7.00
2023-02-14T07:02:44.232Z,4.60
2023-02-14T07:05:12.775Z,6.88
2023-02-14T07:07:41.113Z,6.35
2023-02-14T07:10:09.915Z,6.30
2023-02-14T07:12:40.344Z,4.63
2023-02-14T07:15:10.783Z,5.28
2023-02-14T07:17:39.465Z,6.55
2023-02-14T07:20:11.399Z,8.60
2023-02-14T07:22:40.313Z,11.40
2023-02-14T07:25:09.202Z,7.07
2023-02-14T07:27:37.819Z,7.65
2023-02-14T07:30:07.541Z,8.02
2023-02-14T07:32:36.079Z,7.88
2023-02-14T07:35:04.583Z,7.20
2023-02-14T07:37:36.894Z,4.70
2023-02-14T07:40:14.075Z,5.40
2023-02-14T07:42:43.261Z,6.10
2023-02-14T07:45:27.115Z,9.95
2023-02-14T07:47:56.500Z,15.13
2023-02-14T07:50:25.348Z,8.65
2023-02-14T07:52:53.775Z,9.93
2023-02-14T07:55:23.717Z,7.28
2023-02-14T07:57:52.960Z,7.32
2023-02-14T08:00:21.909Z,5.63
2023-02-14T08:02:50.267Z,5.00
2023-02-14T08:05:18.907Z,6.68
2023-02-14T08:07:47.340Z,9.77
2023-02-14T08:10:16.179Z,8.88
2023-02-14T08:12:59.913Z,6.32
2023-02-14T08:15:48.574Z,5.30
2023-02-14T08:18:18.948Z,6.00
2023-02-14T08:20:50.541Z,5.25
2023-02-14T08:23:19.942Z,5.20
2023-02-14T08:25:50.630Z,6.15
2023-02-14T08:28:22.602Z,4.88
2023-02-14T08:30:51.480Z,4.50
2023-02-14T08:33:20.402Z,5.65
2023-02-14T08:35:49.006Z,5.22
2023-02-14T08:38:17.350Z,5.28
2023-02-14T08:40:45.877Z,4.63
2023-02-14T08:43:15.207Z,4.97
2023-02-14T08:45:43.680Z,4.82
2023-02-14T08:48:14.011Z,5.38
2023-02-14T08:50:42.900Z,4.55
2023-02-14T08:53:13.842Z,6.25
2023-02-14T08:55:42.845Z,5.93
2023-02-14T08:58:11.211Z,7.03
2023-02-14T09:00:39.968Z,5.45
2023-02-14T09:03:08.620Z,5.82
2023-02-14T09:05:37.009Z,7.15
2023-02-14T09:08:06.592Z,5.88
2023-02-14T09:10:34.970Z,5.43
2023-02-14T09:13:03.310Z,8.48
2023-02-14T09:15:31.718Z,5.50
2023-02-14T09:18:00.142Z,5.35
2023-02-14T09:20:28.564Z,5.70
2023-02-14T09:22:58.009Z,5.10
2023-02-14T09:25:26.461Z,5.68
2023-02-14T09:27:54.857Z,4.78
2023-02-14T09:30:23.278Z,4.53
2023-02-14T09:32:53.700Z,5.20
2023-02-14T09:35:22.271Z,3.50
2023-02-14T09:37:50.622Z,4.30
2023-02-14T09:40:21.061Z,4.35
2023-02-14T09:43:00.074Z,4.15
2023-02-14T09:45:33.063Z,3.50
2023-02-14T09:48:37.073Z,3.63
2023-02-14T09:51:22.924Z,3.70
2023-02-14T09:54:01.987Z,5.13
2023-02-14T09:56:42.718Z,4.82
2023-02-14T09:59:26.406Z,3.45
2023-02-14T10:02:03.471Z,3.83
2023-02-14T10:04:48.759Z,3.30
2023-02-14T10:07:20.413Z,3.20
2023-02-14T10:10:09.612Z,3.60
2023-02-14T10:12:50.441Z,4.25
2023-02-14T10:15:43.938Z,3.95
2023-02-14T10:18:22.295Z,4.00
2023-02-14T10:20:58.262Z,3.53
2023-02-14T10:23:35.893Z,4.38
2023-02-14T10:26:11.962Z,3.85
2023-02-14T10:28:50.260Z,4.15
2023-02-14T10:31:22.937Z,3.63
2023-02-14T10:34:14.006Z,3.47
2023-02-14T10:37:13.982Z,3.42
2023-02-14T10:39:56.168Z,4.30
2023-02-14T10:42:38.201Z,4.10
2023-02-14T10:45:39.869Z,3.65
2023-02-14T10:48:47.678Z,3.65
2023-02-14T10:51:40.797Z,3.35
2023-02-14T10:54:12.234Z,3.55
2023-02-14T10:57:01.687Z,4.32
2023-02-14T10:59:55.048Z,2.90
2023-02-14T11:02:46.557Z,3.38
2023-02-14T11:05:37.073Z,2.38
2023-02-14T11:08:18.328Z,2.25
2023-02-14T11:10:47.451Z,3.00
2023-02-14T11:13:36.799Z,2.72
2023-02-14T11:16:19.109Z,2.70
2023-02-14T11:18:47.616Z,2.28
2023-02-14T11:21:27.184Z,2.35
2023-02-14T11:23:55.523Z,2.60
2023-02-14T11:26:35.858Z,1.67
2023-02-14T11:29:13.578Z,2.85
2023-02-14T11:31:43.234Z,1.92
2023-02-14T11:34:58.710Z,2.75
2023-02-14T11:37:35.185Z,1.60
2023-02-14T11:40:04.678Z,1.83
2023-02-14T11:42:47.695Z,1.52
2023-02-14T11:45:41.407Z,1.60
2023-02-14T11:48:39.493Z,1.50
2023-02-14T11:51:14.638Z,1.40
2023-02-14T11:53:49.474Z,1.08
2023-02-14T11:56:20.312Z,1.52
2023-02-14T11:58:54.582Z,1.50
2023-02-14T12:01:26.534Z,1.70
2023-02-14T12:03:58.230Z,1.58
2023-02-14T12:06:34.713Z,1.60
2023-02-14T12:09:24.338Z,1.60
2023-02-14T12:12:18.735Z,2.00
2023-02-14T12:14:47.573Z,1.40
2023-02-14T12:17:36.718Z,1.50
2023-02-14T12:20:18.791Z,3.20
2023-02-14T12:23:23.564Z,1.90
2023-02-14T12:26:19.974Z,2.40
2023-02-14T12:29:29.522Z,2.17
2023-02-14T12:32:02.936Z,2.45
2023-02-14T12:34:31.518Z,2.35
2023-02-14T12:37:18.666Z,2.40
2023-02-14T12:39:50.263Z,2.70
2023-02-14T12:42:33.756Z,2.78
2023-02-14T12:45:17.316Z,3.00
2023-02-14T12:48:27.101Z,3.42
2023-02-14T12:50:55.453Z,2.63
2023-02-14T12:53:46.241Z,3.17
2023-02-14T12:56:44.177Z,3.38
2023-02-14T12:59:47.207Z,3.28
2023-02-14T13:02:33.651Z,2.50
2023-02-14T13:05:02.656Z,3.20
2023-02-14T13:07:54.234Z,3.20
2023-02-14T13:10:22.565Z,3.00
2023-02-14T13:13:26.592Z,3.47
2023-02-14T13:16:11.652Z,2.97
2023-02-14T13:18:45.051Z,3.47
2023-02-14T13:21:17.964Z,2.70
2023-02-14T13:23:50.830Z,3.20
2023-02-14T13:26:36.737Z,3.00
2023-02-14T13:29:21.551Z,2.97
2023-02-14T13:31:50.735Z,2.60
2023-02-14T13:34:33.444Z,2.83
2023-02-14T13:37:04.704Z,3.22
2023-02-14T13:39:41.949Z,2.38
2023-02-14T13:42:12.289Z,2.50
2023-02-14T13:44:48.723Z,2.60
2023-02-14T13:47:21.211Z,3.30
2023-02-14T13:49:59.113Z,2.85
2023-02-14T13:52:45.823Z,3.05
2023-02-14T13:55:27.181Z,2.90
2023-02-14T13:58:03.818Z,2.40
2023-02-14T14:00:47.475Z,2.80
2023-02-14T14:03:17.456Z,2.83
2023-02-14T14:05:58.960Z,2.75
2023-02-14T14:08:29.870Z,3.33
2023-02-14T14:11:01.913Z,3.50
2023-02-14T14:13:42.753Z,3.38
2023-02-14T14:16:41.095Z,3.05
2023-02-14T14:19:18.368Z,3.50
2023-02-14T14:22:01.470Z,3.90
2023-02-14T14:24:38.754Z,3.40
2023-02-14T14:27:19.384Z,3.63
2023-02-14T14:29:50.559Z,3.80
2023-02-14T14:32:31.544Z,3.58
2023-02-14T14:35:04.090Z,3.30
2023-02-14T14:37:37.751Z,3.20
2023-02-14T14:40:09.180Z,3.67
2023-02-14T14:42:40.904Z,3.38
2023-02-14T14:45:21.470Z,2.55
2023-02-14T14:47:54.125Z,3.60
2023-02-14T14:50:30.572Z,2.53
2023-02-14T14:53:28.160Z,3.40
2023-02-14T14:55:57.032Z,3.42
2023-02-14T14:58:40.942Z,3.38
2023-02-14T15:01:14.157Z,4.13
2023-02-14T15:03:42.726Z,4.50
2023-02-14T15:06:18.245Z,4.55
2023-02-14T15:08:48.912Z,5.50
2023-02-14T15:11:45.537Z,4.90
2023-02-14T15:14:25.121Z,5.05
2023-02-14T15:16:59.888Z,5.40
2023-02-14T15:19:52.343Z,5.10
2023-02-14T15:22:45.189Z,4.70
2023-02-14T15:25:20.305Z,4.78
2023-02-14T15:27:49.109Z,6.50
2023-02-14T15:30:20.789Z,5.85
2023-02-14T15:32:51.472Z,5.82
2023-02-14T15:35:29.924Z,5.60
2023-02-14T15:38:01.978Z,5.97
2023-02-14T15:40:33.482Z,7.45
2023-02-14T15:43:23.685Z,7.40
2023-02-14T15:46:13.805Z,7.40
2023-02-14T15:48:43.147Z,6.68
2023-02-14T15:51:22.119Z,7.68
2023-02-14T15:53:59.186Z,6.97
2023-02-14T15:56:37.213Z,7.00
2023-02-14T15:59:30.538Z,6.68
2023-02-14T16:02:00.247Z,7.28
2023-02-14T16:04:34.987Z,7.05
2023-02-14T16:07:28.477Z,7.30
2023-02-14T16:10:38.936Z,8.50
2023-02-14T16:13:14.585Z,14.68
2023-02-14T16:16:00.236Z,13.02
2023-02-14T16:18:46.079Z,11.75
2023-02-14T16:21:16.518Z,15.68
2023-02-14T16:23:47.022Z,11.57
2023-02-14T16:26:16.312Z,15.52
2023-02-14T16:28:44.723Z,21.63
2023-02-14T16:31:17.768Z,14.10
2023-02-14T16:33:46.272Z,10.90
2023-02-14T16:36:30.034Z,10.32
2023-02-14T16:38:58.894Z,9.70
2023-02-14T16:41:29.563Z,8.02
2023-02-14T16:43:58.338Z,8.77
2023-02-14T16:46:31.554Z,8.85
2023-02-14T16:49:00.184Z,7.47
2023-02-14T16:51:35.106Z,7.78
2023-02-14T16:54:09.693Z,8.15
2023-02-14T16:56:47.791Z,7.57
2023-02-14T16:59:16.320Z,8.02
2023-02-14T17:01:44.724Z,7.32
2023-02-14T17:04:13.437Z,8.20
2023-02-14T17:06:47.903Z,8.57
2023-02-14T17:09:21.029Z,10.30
2023-02-14T17:11:52.953Z,9.68
2023-02-14T17:14:26.421Z,10.40
2023-02-14T17:16:57.158Z,9.52
2023-02-14T17:19:25.633Z,8.65
2023-02-14T17:21:54.255Z,9.38
2023-02-14T17:24:22.582Z,7.75
2023-02-14T17:26:50.910Z,8.55
2023-02-14T17:29:19.273Z,9.52
2023-02-14T17:31:47.805Z,9.15
2023-02-14T17:34:16.265Z,7.40
2023-02-14T17:36:44.661Z,6.13
2023-02-14T17:39:12.998Z,5.93
2023-02-14T17:41:41.373Z,7.22
2023-02-14T17:44:10.152Z,6.72
2023-02-14T17:46:38.519Z,6.20
2023-02-14T17:49:07.537Z,6.80
2023-02-14T17:51:36.086Z,7.82
2023-02-14T17:54:04.545Z,7.28
2023-02-14T17:56:32.894Z,6.38
2023-02-14T17:59:01.383Z,6.63
2023-02-14T18:01:35.483Z,6.60
2023-02-14T18:04:05.433Z,5.90
2023-02-14T18:06:34.237Z,6.07
2023-02-14T18:09:07.287Z,6.57
2023-02-14T18:11:35.702Z,4.70
2023-02-14T18:14:05.310Z,5.13
2023-02-14T18:16:34.128Z,5.20
2023-02-14T18:19:06.067Z,5.50
2023-02-14T18:21:36.935Z,5.43
2023-02-14T18:24:05.689Z,6.20
2023-02-14T18:26:34.678Z,5.67
2023-02-14T18:29:07.309Z,5.23
2023-02-14T18:31:37.331Z,5.50
2023-02-14T18:34:06.191Z,5.83
2023-02-14T18:36:37.761Z,6.30
2023-02-14T18:39:07.046Z,4.97
2023-02-14T18:41:36.063Z,6.27
2023-02-14T18:44:04.771Z,4.93
2023-02-14T18:46:36.291Z,5.03
2023-02-14T18:49:07.840Z,6.17
2023-02-14T18:51:40.020Z,5.37
2023-02-14T18:54:08.883Z,5.13
2023-02-14T18:56:39.460Z,3.90
2023-02-14T18:59:14.093Z,4.43
2023-02-14T19:01:46.970Z,4.07
2023-02-14T19:04:15.604Z,4.30
2023-02-14T19:06:44.394Z,4.23
2023-02-14T19:09:14.978Z,4.10
2023-02-14T19:11:44.068Z,4.27
2023-02-14T19:14:14.040Z,4.10
2023-02-14T19:16:51.346Z,3.50
2023-02-14T19:19:21.625Z,4.10
2023-02-14T19:21:50.751Z,5.00
2023-02-14T19:24:20.558Z,4.93
2023-02-14T19:26:49.381Z,5.40
2023-02-14T19:29:19.089Z,4.73
2023-02-14T19:31:56.679Z,4.83
2023-02-14T19:34:29.364Z,4.87
2023-02-14T19:37:00.583Z,5.37
2023-02-14T19:39:31.014Z,4.90
2023-02-14T19:42:00.212Z,5.10
2023-02-14T19:44:30.038Z,5.90
2023-02-14T19:47:00.781Z,5.70
2023-02-14T19:49:30.605Z,5.90
2023-02-14T19:51:59.670Z,4.23
2023-02-14T19:54:28.066Z,4.40
2023-02-14T19:56:57.009Z,3.73
2023-02-14T19:59:25.437Z,3.20
2023-02-14T20:01:55.730Z,4.07
2023-02-14T20:04:30.180Z,4.23
2023-02-14T20:06:59.526Z,4.17
2023-02-14T20:09:27.893Z,4.50
2023-02-14T20:11:58.569Z,4.07
2023-02-14T20:14:31.467Z,4.07
2023-02-14T20:17:02.489Z,4.30
2023-02-14T20:19:34.240Z,4.30
2023-02-14T20:22:02.936Z,4.90
2023-02-14T20:24:33.393Z,4.47
2023-02-14T20:27:03.119Z,3.90
2023-02-14T20:29:31.532Z,4.67
2023-02-14T20:32:02.212Z,3.80
2023-02-14T20:34:30.644Z,4.20
2023-02-14T20:36:59.998Z,4.10
2023-02-14T20:39:32.007Z,3.57
2023-02-14T20:42:01.212Z,3.37
2023-02-14T20:44:29.639Z,4.07
2023-02-14T20:46:59.921Z,3.43
2023-02-14T20:49:30.626Z,3.30
2023-02-14T20:51:59.820Z,3.53
2023-02-14T20:54:29.601Z,3.43
2023-02-14T20:56:58.685Z,3.00
2023-02-14T20:59:30.180Z,3.23
2023-02-14T21:02:00.078Z,3.40
2023-02-14T21:04:29.774Z,2.43
2023-02-14T21:07:00.425Z,3.23
2023-02-14T21:09:29.088Z,4.10
2023-02-14T21:11:59.259Z,2.60
2023-02-14T21:14:27.826Z,2.10
2023-02-14T21:16:56.217Z,2.20
2023-02-14T21:19:25.632Z,2.20
2023-02-14T21:21:54.895Z,3.03
2023-02-14T21:24:25.934Z,2.53
2023-02-14T21:26:54.390Z,2.10
2023-02-14T21:29:22.856Z,2.30
2023-02-14T21:31:51.452Z,2.23
2023-02-14T21:34:19.890Z,1.83
2023-02-14T21:36:48.296Z,1.97
2023-02-14T21:39:16.728Z,1.80
2023-02-14T21:41:45.087Z,2.13
2023-02-14T21:44:33.324Z,2.03
2023-02-14T21:47:01.706Z,2.03
2023-02-14T21:49:48.526Z,1.60
2023-02-14T21:52:16.902Z,1.90
2023-02-14T21:54:45.247Z,2.40
2023-02-14T21:57:13.762Z,2.50
2023-02-14T21:59:42.529Z,2.17
2023-02-14T22:02:13.400Z,2.70
2023-02-14T22:04:45.008Z,3.23
2023-02-14T22:07:13.461Z,3.47
2023-02-14T22:09:41.965Z,3.97
2023-02-14T22:12:10.365Z,3.20
2023-02-14T22:14:38.696Z,3.37
2023-02-14T22:17:07.035Z,2.90
2023-02-14T22:19:37.233Z,3.23
2023-02-14T22:22:06.117Z,3.00
2023-02-14T22:24:34.477Z,3.43
2023-02-14T22:27:02.908Z,3.53
2023-02-14T22:29:31.323Z,2.90
2023-02-14T22:31:59.723Z,3.50
2023-02-14T22:34:28.180Z,3.20
2023-02-14T22:36:56.599Z,2.70
2023-02-14T22:39:24.995Z,2.30
2023-02-14T22:41:53.377Z,3.00
2023-02-14T22:44:21.765Z,2.33
2023-02-14T22:46:50.163Z,2.80
2023-02-14T22:49:18.564Z,2.73
2023-02-14T22:51:46.988Z,2.50
2023-02-14T22:54:16.884Z,2.90
2023-02-14T22:56:51.819Z,3.30
2023-02-14T22:59:25.646Z,2.77
2023-02-14T23:01:54.522Z,2.33
2023-02-14T23:04:25.753Z,2.40
2023-02-14T23:06:54.819Z,2.47
2023-02-14T23:09:24.343Z,2.50
2023-02-14T23:11:53.023Z,2.50
2023-02-14T23:14:39.945Z,2.40
2023-02-14T23:17:26.810Z,3.10
2023-02-14T23:20:13.753Z,2.83
2023-02-14T23:22:42.680Z,2.33
2023-02-14T23:25:12.907Z,2.30
2023-02-14T23:27:48.023Z,2.10
2023-02-14T23:30:19.041Z,1.80
2023-02-14T23:32:47.499Z,2.90
2023-02-14T23:35:16.074Z,3.07
2023-02-14T23:37:44.450Z,2.97
2023-02-14T23:40:13.109Z,2.77
2023-02-14T23:42:41.709Z,2.90
2023-02-14T23:45:29.340Z,2.57
2023-02-14T23:48:01.965Z,2.57
2023-02-14T23:50:30.487Z,3.23
2023-02-14T23:52:58.873Z,2.23
2023-02-14T23:55:27.513Z,2.90
2023-02-14T23:57:55.853Z,2.33
